createdAt,value
2018-03-15T00:01:10.070Z,5.10
2018-03-15T00:03:37.492Z,5.20
2018-03-15T00:06:05.004Z,5.20
2018-03-15T00:08:32.439Z,5.10
2018-03-15T00:10:59.928Z,5.00
2018-03-15T00:13:27.350Z,5.00
2018-03-15T00:15:54.819Z,4.90
2018-03-15T00:18:22.279Z,4.90
2018-03-15T00:20:49.699Z,4.80
2018-03-15T00:23:17.128Z,4.90
2018-03-15T00:25:45.475Z,4.80
2018-03-15T00:28:12.915Z,4.80
2018-03-15T00:30:40.366Z,4.80
2018-03-15T00:33:07.851Z,4.80
2018-03-15T00:35:35.332Z,4.90
2018-03-15T00:38:02.765Z,5.00
2018-03-15T00:40:30.316Z,5.00
2018-03-15T00:42:57.763Z,5.00
2018-03-15T00:45:25.180Z,4.90
2018-03-15T00:47:52.608Z,4.90
2018-03-15T00:50:20.026Z,4.80
2018-03-15T00:52:47.520Z,4.70
2018-03-15T00:55:15.057Z,4.60
2018-03-15T00:57:42.680Z,4.60
2018-03-15T01:00:10.112Z,4.50
2018-03-15T01:02:37.543Z,4.50
2018-03-15T01:05:05.187Z,4.50
2018-03-15T01:07:32.640Z,4.50
2018-03-15T01:10:00.284Z,4.60
2018-03-15T01:12:27.864Z,4.50
2018-03-15T01:14:55.497Z,4.50
2018-03-15T01:17:23.080Z,4.50
2018-03-15T01:19:50.540Z,4.40
2018-03-15T01:22:18.006Z,4.30
2018-03-15T01:24:45.432Z,4.30
2018-03-15T01:27:12.856Z,4.30
2018-03-15T01:29:40.292Z,4.30
2018-03-15T01:32:07.821Z,4.30
2018-03-15T01:34:35.256Z,4.30
2018-03-15T01:37:02.677Z,4.30
2018-03-15T01:39:30.185Z,4.40
2018-03-15T01:41:57.644Z,4.30
2018-03-15T01:44:25.306Z,4.20
2018-03-15T01:46:53.470Z,4.20
2018-03-15T01:49:20.928Z,4.20
2018-03-15T01:51:48.365Z,4.00
2018-03-15T01:54:15.784Z,4.00
2018-03-15T01:56:43.215Z,4.10
2018-03-15T01:59:10.632Z,4.00
2018-03-15T02:01:38.214Z,4.00
2018-03-15T02:04:05.653Z,4.10
2018-03-15T02:06:33.085Z,4.00
2018-03-15T02:09:00.504Z,4.00
2018-03-15T02:11:27.935Z,3.90
2018-03-15T02:13:55.352Z,3.90
2018-03-15T02:16:23.547Z,3.80
2018-03-15T02:18:50.963Z,3.80
2018-03-15T02:21:18.389Z,3.80
2018-03-15T02:23:45.821Z,3.70
2018-03-15T02:26:13.392Z,3.70
2018-03-15T02:28:40.823Z,3.80
2018-03-15T02:31:08.244Z,3.80
2018-03-15T02:33:36.677Z,3.60
2018-03-15T02:36:04.140Z,3.60
2018-03-15T02:38:31.596Z,3.50
2018-03-15T02:40:59.014Z,3.60
2018-03-15T02:43:26.504Z,3.60
2018-03-15T02:45:53.924Z,3.60
2018-03-15T02:48:21.421Z,3.60
2018-03-15T02:50:48.877Z,3.50
2018-03-15T02:53:16.319Z,3.60
2018-03-15T02:55:43.791Z,3.60
2018-03-15T02:58:11.225Z,3.50
2018-03-15T03:00:38.709Z,3.60
2018-03-15T03:03:06.140Z,3.60
2018-03-15T03:05:33.558Z,3.60
2018-03-15T03:08:00.980Z,3.60
2018-03-15T03:10:28.403Z,3.60
2018-03-15T03:12:55.856Z,3.60
2018-03-15T03:15:23.436Z,3.60
2018-03-15T03:17:51.816Z,3.60
2018-03-15T03:20:20.192Z,3.60
2018-03-15T03:22:47.622Z,3.50
2018-03-15T03:25:15.112Z,3.50
2018-03-15T03:27:42.560Z,3.50
2018-03-15T03:30:09.991Z,3.30
2018-03-15T03:32:37.478Z,3.30
2018-03-15T03:35:04.912Z,3.20
2018-03-15T03:37:32.333Z,3.20
2018-03-15T03:39:59.761Z,3.20
2018-03-15T03:42:27.302Z,3.20
2018-03-15T03:44:54.758Z,3.20
2018-03-15T03:47:22.185Z,3.20
2018-03-15T03:49:49.616Z,3.20
2018-03-15T03:52:17.812Z,3.20
2018-03-15T03:54:45.232Z,3.20
2018-03-15T03:57:12.655Z,3.20
2018-03-15T03:59:40.088Z,3.20
2018-03-15T04:02:07.511Z,3.10
2018-03-15T04:04:35.708Z,3.10
2018-03-15T04:07:03.124Z,3.10
2018-03-15T04:09:30.567Z,3.10
2018-03-15T04:11:58.004Z,3.00
2018-03-15T04:14:25.420Z,3.00
2018-03-15T04:16:52.916Z,2.90
2018-03-15T04:19:20.372Z,3.00
2018-03-15T04:21:47.831Z,3.00
2018-03-15T04:24:15.248Z,3.10
2018-03-15T04:26:42.740Z,2.90
2018-03-15T04:29:10.195Z,2.90
2018-03-15T04:31:37.637Z,2.80
2018-03-15T04:34:05.107Z,2.80
2018-03-15T04:36:32.540Z,2.80
2018-03-15T04:39:00.020Z,2.90
2018-03-15T04:41:27.484Z,2.90
2018-03-15T04:43:55.239Z,3.00
2018-03-15T04:46:22.677Z,3.00
2018-03-15T04:48:50.154Z,3.00
2018-03-15T04:51:17.612Z,2.90
2018-03-15T04:53:45.039Z,3.00
2018-03-15T04:56:12.524Z,3.00
2018-03-15T04:58:39.988Z,3.00
2018-03-15T05:01:07.620Z,3.10
2018-03-15T05:03:35.201Z,3.10
2018-03-15T05:06:02.925Z,3.10
2018-03-15T05:08:30.339Z,3.10
2018-03-15T05:10:57.877Z,3.10
2018-03-15T05:13:25.311Z,3.10
2018-03-15T05:15:52.727Z,3.10
2018-03-15T05:18:20.252Z,3.10
2018-03-15T05:20:47.703Z,3.10
2018-03-15T05:23:15.340Z,3.10
2018-03-15T05:25:42.856Z,3.10
2018-03-15T05:28:10.381Z,3.10
2018-03-15T05:30:37.807Z,3.10
2018-03-15T05:33:05.237Z,3.20
2018-03-15T05:35:32.748Z,3.20
2018-03-15T05:38:00.180Z,3.20
2018-03-15T05:40:27.604Z,3.20
2018-03-15T05:42:55.031Z,3.20
2018-03-15T05:45:22.467Z,3.20
2018-03-15T05:47:49.897Z,3.30
2018-03-15T05:50:17.480Z,3.30
2018-03-15T05:52:45.791Z,3.30
2018-03-15T05:55:13.216Z,3.30
2018-03-15T05:57:40.705Z,3.40
2018-03-15T06:00:08.127Z,3.30
2018-03-15T06:02:35.561Z,3.30
2018-03-15T06:05:03.149Z,3.20
2018-03-15T06:07:30.623Z,3.30
2018-03-15T06:09:58.050Z,3.30
2018-03-15T06:12:25.482Z,3.30
2018-03-15T06:14:52.963Z,3.40
2018-03-15T06:17:20.380Z,3.50
2018-03-15T06:19:47.812Z,3.60
2018-03-15T06:22:15.336Z,3.60
2018-03-15T06:24:42.783Z,3.60
2018-03-15T06:27:10.200Z,3.60
2018-03-15T06:29:37.632Z,3.70
2018-03-15T06:32:05.060Z,3.80
2018-03-15T06:34:32.562Z,3.80
2018-03-15T06:37:00.094Z,3.80
2018-03-15T06:39:27.504Z,3.90
2018-03-15T06:41:54.924Z,3.90
2018-03-15T06:44:22.379Z,4.00
2018-03-15T06:46:49.800Z,4.10
2018-03-15T06:49:17.236Z,4.10
2018-03-15T06:51:45.244Z,4.20
2018-03-15T06:54:12.876Z,4.20
2018-03-15T06:56:40.309Z,4.30
2018-03-15T06:59:07.732Z,4.40
2018-03-15T07:01:35.169Z,4.40
2018-03-15T07:04:02.701Z,4.50
2018-03-15T07:06:30.140Z,4.50
2018-03-15T07:08:57.617Z,4.60
2018-03-15T07:11:25.053Z,4.70
2018-03-15T07:13:52.475Z,4.80
2018-03-15T07:16:19.903Z,4.90
2018-03-15T07:18:47.448Z,4.90
2018-03-15T07:21:14.872Z,5.00
2018-03-15T07:23:42.292Z,5.10
2018-03-15T07:26:09.723Z,5.10
2018-03-15T07:28:37.177Z,5.10
2018-03-15T07:31:04.606Z,5.20
2018-03-15T07:33:32.185Z,5.30
2018-03-15T07:35:59.635Z,5.30
2018-03-15T07:38:27.072Z,5.40
2018-03-15T07:40:54.504Z,5.40
2018-03-15T07:43:22.008Z,5.50
2018-03-15T07:45:49.459Z,5.50
2018-03-15T07:48:16.924Z,5.60
2018-03-15T07:50:44.356Z,5.60
2018-03-15T07:53:11.831Z,5.70
2018-03-15T07:55:39.261Z,5.80
2018-03-15T07:58:06.696Z,5.80
2018-03-15T08:00:34.897Z,6.00
2018-03-15T08:03:02.346Z,6.00
2018-03-15T08:05:29.908Z,6.10
2018-03-15T08:07:57.338Z,6.10
2018-03-15T08:10:25.536Z,6.30
2018-03-15T08:12:52.968Z,6.30
2018-03-15T08:15:20.404Z,6.30
2018-03-15T08:17:47.832Z,6.40
2018-03-15T08:20:15.392Z,6.40
2018-03-15T08:22:42.820Z,6.50
2018-03-15T08:25:10.269Z,6.60
2018-03-15T08:27:37.753Z,6.70
2018-03-15T08:30:05.192Z,6.80
2018-03-15T08:32:32.616Z,6.80
2018-03-15T08:35:00.124Z,6.90
2018-03-15T08:37:27.762Z,7.00
2018-03-15T08:39:55.279Z,7.10
2018-03-15T08:42:22.806Z,7.20
2018-03-15T08:44:50.267Z,7.30
2018-03-15T08:47:17.692Z,7.40
2018-03-15T08:49:45.124Z,7.50
2018-03-15T08:52:12.565Z,7.60
2018-03-15T08:54:39.983Z,7.70
2018-03-15T08:57:07.566Z,7.90
2018-03-15T08:59:35.169Z,8.00
2018-03-15T09:02:02.753Z,8.10
2018-03-15T09:04:30.182Z,8.10
2018-03-15T09:06:57.753Z,8.10
2018-03-15T09:09:25.044Z,8.30
2018-03-15T09:11:52.584Z,8.40
2018-03-15T09:14:20.018Z,8.50
2018-03-15T09:16:47.588Z,8.70
2018-03-15T09:19:15.261Z,8.80
2018-03-15T09:21:42.717Z,9.00
2018-03-15T09:24:10.173Z,9.20
2018-03-15T09:26:37.813Z,9.40
2018-03-15T09:29:05.332Z,9.50
2018-03-15T09:31:33.652Z,9.80
2018-03-15T09:34:01.224Z,9.80
2018-03-15T09:36:28.655Z,9.80
2018-03-15T09:38:56.093Z,10.00
2018-03-15T09:41:23.596Z,10.20
2018-03-15T09:43:51.149Z,10.30
2018-03-15T09:46:18.737Z,10.50
2018-03-15T09:48:46.189Z,10.60
2018-03-15T09:51:13.780Z,10.70
2018-03-15T09:53:41.372Z,10.70
2018-03-15T09:56:08.880Z,10.70
2018-03-15T09:58:36.315Z,10.70
2018-03-15T10:01:03.865Z,10.80
2018-03-15T10:03:31.624Z,10.90
2018-03-15T10:05:59.052Z,11.00
2018-03-15T10:08:26.537Z,11.00
2018-03-15T10:10:54.128Z,11.10
2018-03-15T10:13:21.659Z,11.20
2018-03-15T10:15:49.212Z,11.10
2018-03-15T10:18:16.855Z,11.20
2018-03-15T10:20:44.363Z,11.20
2018-03-15T10:23:11.796Z,11.30
2018-03-15T10:25:39.252Z,11.40
2018-03-15T10:28:06.703Z,11.60
2018-03-15T10:30:34.196Z,11.80
2018-03-15T10:33:07.376Z,11.90
2018-03-15T10:35:34.932Z,11.90
2018-03-15T10:38:02.385Z,12.00
2018-03-15T10:40:29.834Z,12.10
2018-03-15T10:42:57.375Z,12.20
2018-03-15T10:45:25.012Z,12.20
2018-03-15T10:47:52.597Z,12.20
2018-03-15T10:50:20.361Z,11.80
2018-03-15T10:52:47.816Z,11.70
2018-03-15T10:55:15.252Z,11.70
2018-03-15T10:57:42.684Z,11.80
2018-03-15T11:00:10.185Z,11.70
2018-03-15T11:02:43.514Z,11.40
2018-03-15T11:05:16.904Z,11.20
2018-03-15T11:07:50.005Z,11.10
2018-03-15T11:10:17.523Z,11.10
2018-03-15T11:12:44.984Z,11.10
2018-03-15T11:15:12.609Z,11.20
2018-03-15T11:17:40.191Z,11.30
2018-03-15T11:20:07.632Z,11.50
2018-03-15T11:22:35.072Z,11.70
2018-03-15T11:25:02.504Z,11.80
2018-03-15T11:27:30.016Z,11.90
2018-03-15T11:29:57.450Z,12.10
2018-03-15T11:32:24.889Z,12.30
2018-03-15T11:34:52.313Z,12.40
2018-03-15T11:37:19.756Z,12.50
2018-03-15T11:39:47.179Z,12.70
2018-03-15T11:42:14.660Z,12.70
2018-03-15T11:44:42.128Z,12.90
2018-03-15T11:47:09.553Z,13.10
2018-03-15T11:49:37.120Z,13.30
2018-03-15T11:52:04.559Z,13.40
2018-03-15T11:54:31.997Z,13.80
2018-03-15T11:56:59.498Z,13.90
2018-03-15T11:59:27.264Z,14.10
2018-03-15T12:01:54.895Z,14.30
2018-03-15T12:04:22.401Z,14.50
2018-03-15T12:06:49.940Z,14.70
2018-03-15T12:09:17.704Z,14.90
2018-03-15T12:11:45.140Z,15.10
2018-03-15T12:14:12.568Z,15.30
2018-03-15T12:16:40.072Z,15.50
2018-03-15T12:19:07.816Z,15.70
2018-03-15T12:21:35.244Z,15.90
2018-03-15T12:24:02.752Z,16.10
2018-03-15T12:26:30.192Z,16.30
2018-03-15T12:28:57.616Z,16.40
2018-03-15T12:31:25.116Z,16.50
2018-03-15T12:33:52.568Z,16.50
2018-03-15T12:36:20.008Z,16.80
2018-03-15T12:38:47.444Z,17.00
2018-03-15T12:41:14.864Z,17.10
2018-03-15T12:43:42.396Z,17.20
2018-03-15T12:46:10.154Z,17.30
2018-03-15T12:48:37.590Z,17.30
2018-03-15T12:51:05.064Z,17.40
2018-03-15T12:53:32.489Z,17.40
2018-03-15T12:55:59.913Z,17.50
2018-03-15T12:58:28.359Z,17.60
2018-03-15T13:00:55.830Z,17.50
2018-03-15T13:03:23.256Z,17.60
2018-03-15T13:05:50.678Z,17.60
2018-03-15T13:08:18.177Z,17.60
2018-03-15T13:10:45.604Z,17.60
2018-03-15T13:13:13.052Z,17.70
2018-03-15T13:15:40.557Z,17.50
2018-03-15T13:18:08.296Z,17.40
2018-03-15T13:20:35.712Z,17.30
2018-03-15T13:23:03.229Z,17.30
2018-03-15T13:25:30.664Z,17.20
2018-03-15T13:27:58.081Z,17.00
2018-03-15T13:30:25.512Z,16.70
2018-03-15T13:32:53.056Z,16.50
2018-03-15T13:35:21.352Z,16.50
2018-03-15T13:37:48.893Z,16.50
2018-03-15T13:40:16.333Z,16.50
2018-03-15T13:42:43.759Z,16.30
2018-03-15T13:45:11.250Z,16.30
2018-03-15T13:47:38.660Z,16.20
2018-03-15T13:50:06.097Z,16.20
2018-03-15T13:52:33.628Z,16.10
2018-03-15T13:55:01.388Z,16.00
2018-03-15T13:57:28.844Z,15.90
2018-03-15T13:59:56.299Z,15.60
2018-03-15T14:02:23.755Z,15.30
2018-03-15T14:04:51.192Z,15.20
2018-03-15T14:07:18.628Z,15.00
2018-03-15T14:09:46.119Z,14.90
2018-03-15T14:12:13.562Z,14.60
2018-03-15T14:14:40.995Z,14.30
2018-03-15T14:17:08.423Z,14.30
2018-03-15T14:19:35.865Z,14.10
2018-03-15T14:22:03.404Z,14.00
2018-03-15T14:24:30.864Z,13.80
2018-03-15T14:26:58.313Z,13.80
2018-03-15T14:29:25.831Z,13.70
2018-03-15T14:31:53.208Z,13.70
2018-03-15T14:34:20.692Z,13.70
2018-03-15T14:36:48.138Z,13.70
2018-03-15T14:39:15.560Z,13.60
2018-03-15T14:41:42.997Z,13.70
2018-03-15T14:44:11.381Z,13.70
2018-03-15T14:46:38.790Z,13.70
2018-03-15T14:49:06.292Z,13.50
2018-03-15T14:51:33.783Z,13.30
2018-03-15T14:54:01.222Z,13.20
2018-03-15T14:56:28.649Z,13.10
2018-03-15T14:58:56.088Z,13.00
2018-03-15T15:01:23.632Z,12.90
2018-03-15T15:03:51.261Z,12.80
2018-03-15T15:06:18.789Z,12.80
2018-03-15T15:08:46.224Z,12.70
2018-03-15T15:11:13.659Z,12.80
2018-03-15T15:13:41.142Z,12.70
2018-03-15T15:16:08.584Z,12.60
2018-03-15T15:18:36.244Z,12.70
2018-03-15T15:21:03.800Z,12.70
2018-03-15T15:23:31.352Z,12.70
2018-03-15T15:25:58.787Z,12.80
2018-03-15T15:28:26.223Z,12.80
2018-03-15T15:30:53.647Z,12.80
2018-03-15T15:33:21.092Z,12.80
2018-03-15T15:35:48.641Z,12.80
2018-03-15T15:38:16.312Z,12.80
2018-03-15T15:40:43.850Z,12.90
2018-03-15T15:43:11.288Z,12.90
2018-03-15T15:45:38.728Z,12.80
2018-03-15T15:48:06.161Z,12.80
2018-03-15T15:50:33.608Z,12.80
2018-03-15T15:53:01.131Z,12.80
2018-03-15T15:55:28.570Z,12.60
2018-03-15T15:57:56.044Z,12.50
2018-03-15T16:00:23.504Z,12.40
2018-03-15T16:02:51.273Z,12.30
2018-03-15T16:05:18.728Z,12.20
2018-03-15T16:07:46.176Z,12.10
2018-03-15T16:10:13.817Z,12.10
2018-03-15T16:12:41.395Z,12.20
2018-03-15T16:15:08.848Z,12.20
2018-03-15T16:17:36.276Z,12.20
2018-03-15T16:20:03.716Z,12.30
2018-03-15T16:22:31.219Z,12.30
2018-03-15T16:24:58.865Z,12.20
2018-03-15T16:27:26.303Z,12.30
2018-03-15T16:29:53.812Z,12.30
2018-03-15T16:32:21.245Z,12.20
2018-03-15T16:34:48.812Z,12.30
2018-03-15T16:37:16.449Z,12.30
2018-03-15T16:39:43.880Z,12.40
2018-03-15T16:42:12.108Z,12.30
2018-03-15T16:44:39.790Z,12.30
2018-03-15T16:47:07.205Z,12.30
2018-03-15T16:49:34.781Z,12.30
2018-03-15T16:52:02.429Z,12.30
2018-03-15T16:54:29.996Z,12.40
2018-03-15T16:56:57.441Z,12.40
2018-03-15T16:59:24.873Z,12.30
2018-03-15T17:01:52.292Z,12.30
2018-03-15T17:04:19.743Z,12.30
2018-03-15T17:06:47.313Z,12.30
2018-03-15T17:09:15.076Z,12.30
2018-03-15T17:11:42.808Z,12.30
2018-03-15T17:14:10.243Z,12.30
2018-03-15T17:16:37.676Z,12.20
2018-03-15T17:19:05.112Z,12.10
2018-03-15T17:21:32.545Z,12.10
2018-03-15T17:23:59.989Z,12.10
2018-03-15T17:26:27.527Z,12.10
2018-03-15T17:28:54.996Z,12.00
2018-03-15T17:31:22.437Z,12.00
2018-03-15T17:33:49.913Z,11.90
2018-03-15T17:36:17.349Z,11.80
2018-03-15T17:38:44.823Z,11.80
2018-03-15T17:41:12.312Z,11.70
2018-03-15T17:43:39.922Z,11.70
2018-03-15T17:46:07.440Z,11.70
2018-03-15T17:48:34.864Z,11.70
2018-03-15T17:51:02.301Z,11.70
2018-03-15T17:53:30.068Z,11.60
2018-03-15T17:55:57.512Z,11.50
2018-03-15T17:58:24.978Z,11.50
2018-03-15T18:00:52.458Z,11.40
2018-03-15T18:03:19.898Z,11.50
2018-03-15T18:05:47.367Z,11.50
2018-03-15T18:08:14.921Z,11.40
2018-03-15T18:10:42.373Z,11.40
2018-03-15T18:13:09.824Z,11.40
2018-03-15T18:15:37.275Z,11.30
2018-03-15T18:18:04.741Z,11.30
2018-03-15T18:20:32.199Z,11.20
2018-03-15T18:22:59.633Z,11.20
2018-03-15T18:25:27.105Z,11.30
2018-03-15T18:27:54.532Z,11.30
2018-03-15T18:30:22.016Z,11.30
2018-03-15T18:32:49.799Z,11.20
2018-03-15T18:35:17.440Z,11.20
2018-03-15T18:37:44.913Z,11.10
2018-03-15T18:40:12.403Z,11.10
2018-03-15T18:42:39.930Z,11.00
2018-03-15T18:45:07.472Z,11.10
2018-03-15T18:47:35.139Z,11.00
2018-03-15T18:50:02.772Z,11.00
2018-03-15T18:52:30.235Z,11.10
2018-03-15T18:54:57.688Z,11.10
2018-03-15T18:57:25.185Z,11.10
2018-03-15T18:59:52.724Z,11.00
2018-03-15T19:02:20.163Z,11.00
2018-03-15T19:04:47.640Z,10.90
2018-03-15T19:07:15.279Z,10.90
2018-03-15T19:09:42.766Z,10.90
2018-03-15T19:12:10.205Z,10.90
2018-03-15T19:14:37.772Z,10.90
2018-03-15T19:17:05.204Z,10.90
2018-03-15T19:19:32.636Z,10.90
2018-03-15T19:22:00.851Z,10.80
2018-03-15T19:24:28.426Z,10.80
2018-03-15T19:26:55.861Z,10.70
2018-03-15T19:29:23.440Z,10.60
2018-03-15T19:31:50.894Z,10.40
2018-03-15T19:34:18.525Z,10.30
2018-03-15T19:36:46.135Z,10.20
2018-03-15T19:39:13.878Z,10.20
2018-03-15T19:41:41.303Z,10.00
2018-03-15T19:44:08.736Z,10.00
2018-03-15T19:46:36.164Z,9.90
2018-03-15T19:49:03.596Z,9.80
2018-03-15T19:51:31.055Z,9.70
2018-03-15T19:53:58.516Z,9.70
2018-03-15T19:56:25.968Z,9.70
2018-03-15T19:58:53.523Z,9.70
2018-03-15T20:01:20.971Z,9.70
2018-03-15T20:03:48.600Z,9.70
2018-03-15T20:06:16.192Z,9.70
2018-03-15T20:08:43.620Z,9.80
2018-03-15T20:11:11.074Z,9.90
2018-03-15T20:13:38.493Z,9.90
2018-03-15T20:16:05.938Z,10.00
2018-03-15T20:18:33.481Z,10.00
2018-03-15T20:21:01.112Z,10.00
2018-03-15T20:23:34.360Z,10.10
2018-03-15T20:26:01.896Z,10.10
2018-03-15T20:28:34.979Z,10.10
2018-03-15T20:31:02.420Z,10.00
2018-03-15T20:33:35.641Z,9.90
2018-03-15T20:36:04.663Z,9.90
2018-03-15T20:38:32.178Z,9.80
2018-03-15T20:41:05.580Z,9.80
2018-03-15T20:43:33.147Z,9.80
2018-03-15T20:46:06.410Z,9.80
2018-03-15T20:48:39.525Z,9.80
2018-03-15T20:51:07.274Z,9.80
2018-03-15T20:53:35.510Z,9.80
2018-03-15T20:56:04.032Z,9.80
2018-03-15T20:58:31.482Z,9.80
2018-03-15T21:00:59.183Z,9.90
2018-03-15T21:03:26.696Z,9.90
2018-03-15T21:05:54.456Z,9.90
2018-03-15T21:08:21.889Z,9.90
2018-03-15T21:10:49.347Z,9.90
2018-03-15T21:13:16.828Z,9.90
2018-03-15T21:15:44.261Z,9.90
2018-03-15T21:18:11.690Z,9.90
2018-03-15T21:20:40.120Z,9.90
2018-03-15T21:23:07.596Z,9.90
2018-03-15T21:25:35.037Z,10.00
2018-03-15T21:28:02.480Z,9.90
2018-03-15T21:30:29.948Z,10.00
2018-03-15T21:32:58.338Z,10.00
2018-03-15T21:35:25.953Z,10.00
2018-03-15T21:37:53.549Z,10.00
2018-03-15T21:40:20.965Z,10.00
2018-03-15T21:42:48.393Z,10.00
2018-03-15T21:45:15.933Z,10.00
2018-03-15T21:47:43.364Z,10.00
2018-03-15T21:50:10.789Z,10.00
2018-03-15T21:52:38.276Z,10.00
2018-03-15T21:55:05.726Z,10.00
2018-03-15T21:57:33.149Z,10.00
2018-03-15T22:00:00.581Z,10.00
2018-03-15T22:02:28.105Z,10.00
2018-03-15T22:04:55.892Z,10.00
2018-03-15T22:07:23.628Z,10.00
2018-03-15T22:09:51.096Z,10.00
2018-03-15T22:12:18.535Z,10.00
2018-03-15T22:14:45.960Z,10.00
2018-03-15T22:17:13.392Z,10.10
2018-03-15T22:19:40.824Z,10.10
2018-03-15T22:22:08.393Z,10.10
2018-03-15T22:24:36.012Z,10.10
2018-03-15T22:27:03.529Z,10.10
2018-03-15T22:29:30.960Z,10.00
2018-03-15T22:31:58.409Z,10.00
2018-03-15T22:34:25.873Z,10.00
2018-03-15T22:36:53.352Z,10.00
2018-03-15T22:39:21.793Z,10.00
2018-03-15T22:41:49.230Z,10.00
2018-03-15T22:44:16.706Z,10.00
2018-03-15T22:46:44.155Z,10.00
2018-03-15T22:49:11.568Z,9.90
2018-03-15T22:51:39.076Z,9.90
2018-03-15T22:54:06.530Z,9.80
2018-03-15T22:56:33.961Z,9.80
2018-03-15T22:59:01.442Z,9.80
2018-03-15T23:01:28.875Z,9.90
2018-03-15T23:03:56.296Z,9.90
2018-03-15T23:06:23.724Z,9.80
2018-03-15T23:08:51.157Z,9.80
2018-03-15T23:11:18.703Z,9.80
2018-03-15T23:13:46.132Z,9.70
2018-03-15T23:16:13.598Z,9.70
2018-03-15T23:18:42.020Z,9.80
2018-03-15T23:21:09.471Z,9.80
2018-03-15T23:23:36.909Z,9.70
2018-03-15T23:26:04.329Z,9.70
2018-03-15T23:28:31.837Z,9.70
2018-03-15T23:30:59.296Z,9.60
2018-03-15T23:33:26.748Z,9.70
2018-03-15T23:35:54.209Z,9.70
2018-03-15T23:38:21.863Z,9.60
2018-03-15T23:40:49.329Z,9.60
2018-03-15T23:43:16.798Z,9.60
2018-03-15T23:45:44.241Z,9.60
2018-03-15T23:48:12.115Z,9.60
2018-03-15T23:50:39.869Z,9.70
2018-03-15T23:53:07.324Z,9.60
2018-03-15T23:55:35.087Z,9.60
2018-03-15T23:58:02.860Z,9.60
